Time;durP1;ratioP1;P1;durP2;ratioP2;P2;SDS_P1;SDS_P2;PMS_P1;PMS_P2;Temp;Humidity;BMP_temperature;BMP_pressure;BME280_temperature;BME280_humidity;BME280_pressure;Samples;Min_cycle;Max_cycle;Signal;HPM_P1;HPM_P2
2021/05/13 00:01:22;;;;;;;8.98;8.27;;;;;;;13.49;77.44;99521.94;10242017;28;20072;-62
2021/05/13 00:06:24;;;;;;;8.95;8.15;;;;;;;13.48;77.70;99522.94;10238593;28;20066;-62
2021/05/13 00:11:32;;;;;;;10.13;9.20;;;;;;;13.46;77.86;99519.59;10241737;28;20047;-59
2021/05/13 00:16:35;;;;;;;10.75;9.85;;;;;;;13.47;78.27;99515.94;10246307;28;20098;-63
2021/05/13 00:21:38;;;;;;;10.23;9.43;;;;;;;13.55;77.12;99510.59;10247824;28;20107;-62
2021/05/13 00:26:42;;;;;;;10.23;9.32;;;;;;;13.54;77.33;99515.13;10237838;28;20725;-61
2021/05/13 00:31:44;;;;;;;10.90;10.00;;;;;;;13.44;76.62;99509.91;10238047;28;20059;-61
2021/05/13 00:36:45;;;;;;;10.88;9.73;;;;;;;13.34;76.65;99505.66;10242740;28;20496;-62
2021/05/13 00:41:47;;;;;;;11.75;10.57;;;;;;;13.24;76.90;99506.59;10246653;28;20047;-61
2021/05/13 00:46:49;;;;;;;10.95;9.95;;;;;;;13.22;77.18;99502.41;10247357;28;20047;-62
2021/05/13 00:51:51;;;;;;;12.18;11.07;;;;;;;13.19;77.54;99492.03;10242230;28;20681;-60
2021/05/13 00:56:53;;;;;;;12.10;10.90;;;;;;;13.11;78.18;99484.00;10242282;28;20494;-59
2021/05/13 01:01:55;;;;;;;13.07;11.88;;;;;;;13.08;78.77;99480.63;10252612;28;20110;-58
2021/05/13 01:06:57;;;;;;;13.77;12.52;;;;;;;13.03;79.07;99474.94;10249485;28;20066;-61
2021/05/13 01:12:03;;;;;;;13.38;12.18;;;;;;;13.02;79.48;99475.91;10240285;28;20043;-61
2021/05/13 01:22:20;;;;;;;10.85;9.95;;;;;;;12.99;80.76;99465.53;10249894;28;20634;-63
2021/05/13 01:27:21;;;;;;;10.80;9.90;;;;;;;12.95;80.20;99469.53;10245069;28;20078;-60
2021/05/13 01:32:23;;;;;;;12.50;11.40;;;;;;;12.87;80.26;99477.50;10251902;28;20125;-59
2021/05/13 01:37:24;;;;;;;10.50;9.70;;;;;;;12.79;80.33;99493.44;10255372;28;20057;-60
2021/05/13 01:42:26;;;;;;;10.85;9.90;;;;;;;12.73;80.20;99487.75;10250353;28;20055;-61
2021/05/13 01:47:34;;;;;;;11.80;10.80;;;;;;;12.64;80.19;99483.34;10251866;28;20086;-60
2021/05/13 01:52:35;;;;;;;11.80;10.80;;;;;;;12.60;80.32;99475.81;10245246;28;20154;-62
2021/05/13 01:57:37;;;;;;;10.98;9.98;;;;;;;12.56;80.74;99469.94;10230581;28;20074;-61
2021/05/13 02:02:38;;;;;;;11.93;10.82;;;;;;;12.52;81.44;99481.91;10228721;28;20051;-60
2021/05/13 02:07:40;;;;;;;12.23;10.90;;;;;;;12.35;81.99;99462.25;10238159;28;20059;-60
2021/05/13 02:12:42;;;;;;;10.40;9.40;;;;;;;12.38;82.46;99473.47;10244575;28;20050;-65
2021/05/13 02:17:44;;;;;;;10.60;9.60;;;;;;;12.34;81.95;99472.09;10252905;28;20074;-60
2021/05/13 02:22:46;;;;;;;10.60;9.70;;;;;;;12.35;82.54;99468.44;10245182;28;20098;-60
2021/05/13 02:27:47;;;;;;;11.60;10.60;;;;;;;12.35;81.84;99460.41;10243930;28;20110;-61
2021/05/13 02:32:49;;;;;;;10.85;9.77;;;;;;;12.17;83.21;99460.47;10245829;28;20170;-62
2021/05/13 02:37:51;;;;;;;11.63;10.32;;;;;;;12.16;83.19;99457.91;10250549;28;20054;-61
2021/05/13 02:42:52;;;;;;;12.13;11.13;;;;;;;12.15;83.12;99450.94;10242969;28;20567;-60
2021/05/13 02:47:54;;;;;;;11.35;10.23;;;;;;;12.12;83.32;99445.91;10237355;28;20046;-60
2021/05/13 02:52:55;;;;;;;11.98;10.90;;;;;;;12.11;83.28;99445.03;10237745;28;20069;-60
2021/05/13 02:57:59;;;;;;;12.75;11.57;;;;;;;12.12;83.02;99445.91;10238039;28;20058;-62
2021/05/13 03:03:01;;;;;;;11.80;10.85;;;;;;;12.02;82.80;99436.16;10230441;28;20047;-63
2021/05/13 03:08:04;;;;;;;11.88;10.68;;;;;;;11.99;82.49;99444.47;10247811;28;20050;-59
2021/05/13 03:13:07;;;;;;;11.30;10.20;;;;;;;11.82;82.90;99429.25;10251641;28;20403;-64
2021/05/13 03:18:09;;;;;;;12.10;11.00;;;;;;;11.90;82.99;99439.16;10243974;28;20046;-62
2021/05/13 03:23:12;;;;;;;12.05;10.95;;;;;;;11.85;82.92;99434.28;10238500;28;20063;-61
2021/05/13 03:28:13;;;;;;;12.75;11.55;;;;;;;11.87;82.92;99432.28;10240821;28;20039;-59
2021/05/13 03:33:15;;;;;;;11.63;10.63;;;;;;;11.82;83.02;99421.25;10255707;28;20050;-59
2021/05/13 03:38:17;;;;;;;10.98;10.10;;;;;;;11.76;83.30;99422.69;10246592;28;20050;-61
2021/05/13 03:43:18;;;;;;;16.17;12.15;;;;;;;11.72;83.35;99423.97;10252249;28;20102;-61
2021/05/13 03:48:20;;;;;;;11.82;10.82;;;;;;;11.66;83.16;99414.78;10253170;28;20053;-61
2021/05/13 03:53:21;;;;;;;11.73;10.13;;;;;;;11.62;83.07;99402.72;10246008;28;20043;-62
2021/05/13 03:58:27;;;;;;;10.05;9.15;;;;;;;11.61;82.98;99406.38;10251882;28;20058;-63
2021/05/13 04:03:28;;;;;;;11.63;10.73;;;;;;;11.63;83.10;99407.09;10236147;28;20102;-59
2021/05/13 04:08:30;;;;;;;10.55;9.75;;;;;;;11.63;83.48;99415.09;10233056;28;20105;-61
2021/05/13 04:13:32;;;;;;;9.50;8.80;;;;;;;11.67;83.28;99416.44;10230988;28;20058;-60
2021/05/13 04:18:33;;;;;;;10.25;9.30;;;;;;;11.66;83.35;99409.44;10235267;28;20485;-60
2021/05/13 04:23:34;;;;;;;10.90;9.90;;;;;;;11.65;83.23;99414.94;10235348;28;20055;-62
2021/05/13 04:28:36;;;;;;;9.98;9.20;;;;;;;11.69;83.17;99421.63;10235760;28;20066;-61
2021/05/13 04:33:37;;;;;;;12.18;11.00;;;;;;;11.71;83.13;99410.81;10233046;28;22693;-61
2021/05/13 04:38:39;;;;;;;11.02;10.13;;;;;;;11.63;83.38;99415.09;10233215;28;20047;-61
2021/05/13 04:43:40;;;;;;;10.75;9.85;;;;;;;11.72;82.63;99401.81;10231275;28;20097;-61
2021/05/13 04:53:54;;;;;;;11.07;9.80;;;;;;;11.79;82.61;99401.06;10234788;28;20114;-61
2021/05/13 04:58:55;;;;;;;11.35;10.32;;;;;;;11.90;83.10;99399.16;10237429;28;20090;-62
2021/05/13 05:03:57;;;;;;;10.38;9.57;;;;;;;11.90;81.65;99409.81;10239696;28;20054;-62
2021/05/13 05:08:59;;;;;;;11.88;10.85;;;;;;;11.86;82.08;99414.63;10240348;28;20106;-61
2021/05/13 05:14:00;;;;;;;10.63;9.73;;;;;;;11.88;82.06;99401.97;10241808;28;20050;-61
2021/05/13 05:19:02;;;;;;;16.00;12.68;;;;;;;11.91;81.61;99396.34;10253413;28;20051;-61
2021/05/13 05:24:04;;;;;;;14.13;12.80;;;;;;;12.05;81.58;99396.81;10248470;28;20074;-61
2021/05/13 05:29:06;;;;;;;13.18;12.07;;;;;;;12.06;81.58;99394.00;10244695;28;20058;-61
2021/05/13 05:34:07;;;;;;;13.55;12.27;;;;;;;12.16;81.24;99392.09;10248553;28;20059;-61
2021/05/13 05:39:09;;;;;;;14.18;12.98;;;;;;;12.32;80.04;99401.19;10251609;28;20097;-62
2021/05/13 05:44:10;;;;;;;13.93;12.60;;;;;;;12.28;80.70;99398.00;10243731;28;20097;-62
2021/05/13 05:49:12;;;;;;;13.05;11.95;;;;;;;12.27;80.28;99404.34;10247208;28;20101;-62
2021/05/13 05:54:13;;;;;;;13.23;12.15;;;;;;;12.35;81.54;99403.56;10244694;28;20094;-62
2021/05/13 05:59:15;;;;;;;13.13;12.02;;;;;;;12.46;81.68;99389.09;10248709;28;20055;-62
2021/05/13 06:04:16;;;;;;;11.52;10.43;;;;;;;12.66;80.51;99385.25;10251981;28;20481;-62
2021/05/13 06:09:18;;;;;;;11.48;10.52;;;;;;;12.84;79.73;99377.16;10248692;28;20074;-62
2021/05/13 06:14:19;;;;;;;11.82;10.82;;;;;;;12.96;79.81;99375.03;10239791;28;20066;-62
2021/05/13 06:19:20;;;;;;;11.65;10.73;;;;;;;13.00;79.37;99370.19;10243298;28;20066;-61
2021/05/13 06:24:22;;;;;;;12.65;11.45;;;;;;;12.97;78.90;99374.06;10233618;28;20074;-62
2021/05/13 06:29:24;;;;;;;12.32;11.32;;;;;;;12.98;78.56;99367.69;10232137;28;20054;-62
2021/05/13 06:34:28;;;;;;;13.23;11.90;;;;;;;13.03;77.98;99359.19;10232636;28;20484;-62
2021/05/13 06:39:32;;;;;;;12.45;11.15;;;;;;;13.29;77.46;99356.44;10242588;28;20051;-62
2021/05/13 06:44:34;;;;;;;12.90;11.75;;;;;;;13.49;76.79;99364.22;10242358;28;20963;-63
2021/05/13 06:49:35;;;;;;;12.73;11.57;;;;;;;13.61;74.58;99350.34;10244387;28;20069;-62
2021/05/13 06:54:37;;;;;;;13.10;11.55;;;;;;;13.84;74.92;99349.72;10248588;28;20062;-62
2021/05/13 06:59:41;;;;;;;11.75;10.55;;;;;;;13.91;73.90;99345.34;10232199;28;21149;-62
2021/05/13 07:04:42;;;;;;;12.75;11.65;;;;;;;14.17;74.50;99354.22;10244102;28;20062;-62
2021/05/13 07:09:44;;;;;;;13.77;12.57;;;;;;;14.37;73.79;99352.03;10246397;28;20168;-62
2021/05/13 07:14:46;;;;;;;13.23;11.70;;;;;;;14.54;70.82;99356.31;10243312;28;20465;-62
2021/05/13 07:19:47;;;;;;;11.65;10.55;;;;;;;14.62;71.31;99358.19;10241220;28;20054;-62
2021/05/13 07:24:49;;;;;;;11.55;10.38;;;;;;;14.86;71.42;99357.25;10238688;28;20508;-62
2021/05/13 07:29:50;;;;;;;11.20;10.10;;;;;;;14.94;69.91;99356.41;10238907;28;20479;-63
2021/05/13 07:34:51;;;;;;;11.45;10.45;;;;;;;15.12;69.76;99357.00;10240524;28;20050;-63
2021/05/13 07:39:53;;;;;;;13.55;12.30;;;;;;;15.09;67.71;99345.81;10238099;28;20074;-62
2021/05/13 07:44:55;;;;;;;14.65;12.73;;;;;;;15.05;68.81;99344.47;10239751;28;20050;-62
2021/05/13 07:49:56;;;;;;;13.98;12.63;;;;;;;15.21;68.42;99344.41;10244496;28;20057;-62
2021/05/13 07:54:58;;;;;;;12.80;11.45;;;;;;;15.40;67.62;99343.09;10241049;28;20709;-62
2021/05/13 07:59:59;;;;;;;12.63;11.43;;;;;;;15.78;67.10;99340.53;10240572;28;20102;-63
2021/05/13 08:05:01;;;;;;;13.57;12.35;;;;;;;15.92;66.47;99338.09;10237380;28;20060;-62
2021/05/13 08:10:04;;;;;;;12.52;11.48;;;;;;;16.06;66.24;99332.75;10238588;28;20058;-63
2021/05/13 08:15:09;;;;;;;14.40;13.20;;;;;;;16.15;65.54;99325.44;10235470;28;20085;-62
2021/05/13 08:20:14;;;;;;;13.48;12.25;;;;;;;16.35;64.25;99308.78;10241060;28;20094;-62
2021/05/13 08:25:19;;;;;;;13.82;12.40;;;;;;;16.40;63.86;99317.16;10241071;28;20079;-62
2021/05/13 08:30:21;;;;;;;14.07;11.60;;;;;;;16.67;64.32;99318.34;10241860;28;21290;-62
2021/05/13 08:35:23;;;;;;;11.27;10.25;;;;;;;16.91;62.73;99308.34;10242153;28;20511;-63
2021/05/13 08:40:24;;;;;;;13.60;11.88;;;;;;;16.98;61.18;99311.13;10242823;28;20476;-63
2021/05/13 08:45:26;;;;;;;12.18;10.98;;;;;;;17.16;60.49;99311.56;10242114;28;20074;-63
2021/05/13 08:50:28;;;;;;;13.18;11.98;;;;;;;17.18;60.46;99304.13;10237567;28;20124;-63
2021/05/13 08:55:29;;;;;;;12.32;11.23;;;;;;;17.39;59.15;99300.63;10224258;28;20047;-63
2021/05/13 09:00:30;;;;;;;10.57;9.57;;;;;;;17.61;60.26;99297.94;10237494;28;20157;-62
2021/05/13 09:05:48;;;;;;;13.70;11.52;;;;;;;17.50;56.65;99296.59;10235085;28;20524;-62
2021/05/13 09:10:50;;;;;;;13.55;12.25;;;;;;;17.78;57.21;99293.13;10228913;28;20112;-62
2021/05/13 09:15:52;;;;;;;11.77;10.70;;;;;;;18.06;57.17;99284.25;10227162;28;20084;-63
2021/05/13 09:21:02;;;;;;;11.32;10.23;;;;;;;18.71;55.72;99283.00;10233682;28;20062;-63
2021/05/13 09:26:05;;;;;;;9.85;8.20;;;;;;;19.04;53.66;99282.34;10240718;28;20050;-63
2021/05/13 09:31:07;;;;;;;9.50;8.55;;;;;;;18.79;52.48;99275.78;10248301;28;20050;-62
2021/05/13 09:36:18;;;;;;;;;;;;;;;18.72;53.86;99263.13;10249962;28;20081;-63
2021/05/13 09:41:55;;;;;;;8.32;7.45;;;;;;;19.28;51.33;99266.63;10248676;28;19930;-63
2021/05/13 09:46:57;;;;;;;6.15;5.07;;;;;;;19.80;46.41;99263.38;10243938;28;20043;-63
2021/05/13 09:52:00;;;;;;;5.40;4.73;;;;;;;19.96;45.32;99257.56;10243309;28;20078;-63
2021/05/13 09:57:01;;;;;;;7.25;4.15;;;;;;;20.12;43.00;99251.72;10246480;28;20513;-63
2021/05/13 10:02:05;;;;;;;4.57;3.35;;;;;;;20.35;42.44;99245.03;10244437;28;20105;-64
2021/05/13 10:07:06;;;;;;;;;;;;;;;20.91;38.47;99245.47;10250106;28;20763;-62
2021/05/13 10:12:10;;;;;;;3.20;2.13;;;;;;;21.26;39.24;99236.94;10239868;28;20025;-63
2021/05/13 10:17:12;;;;;;;2.40;0.60;;;;;;;21.55;36.18;99238.25;10235863;28;20240;-63
2021/05/13 10:22:15;;;;;;;2.70;1.40;;;;;;;22.21;33.71;99231.38;10227853;28;20162;-63
2021/05/13 10:27:21;;;;;;;4.90;1.90;;;;;;;22.40;36.08;99228.75;10237619;28;20063;-62
2021/05/13 10:32:30;;;;;;;2.90;0.88;;;;;;;22.71;30.36;99218.75;10225789;28;20050;-63
2021/05/13 10:37:35;;;;;;;2.00;1.30;;;;;;;22.87;30.78;99214.59;10220585;28;20169;-63
2021/05/13 10:42:37;;;;;;;3.70;0.88;;;;;;;23.07;28.50;99201.56;10238493;28;20084;-63
2021/05/13 10:47:40;;;;;;;3.00;1.00;;;;;;;23.68;30.03;99203.38;10233868;28;20136;-63
2021/05/13 10:52:44;;;;;;;2.53;1.08;;;;;;;24.11;30.25;99202.22;10238586;28;20054;-63
2021/05/13 10:57:47;;;;;;;2.30;0.93;;;;;;;23.79;28.91;99200.66;10240166;28;20121;-63
2021/05/13 11:02:50;;;;;;;3.15;1.33;;;;;;;23.09;31.16;99190.50;10237355;28;20040;-63
2021/05/13 11:07:51;;;;;;;3.67;2.00;;;;;;;23.12;32.23;99192.78;10239125;28;20685;-63
2021/05/13 11:13:08;;;;;;;4.57;1.95;;;;;;;24.17;31.43;99182.25;10241191;28;20141;-63
2021/05/13 11:18:12;;;;;;;4.10;2.15;;;;;;;24.19;31.90;99188.28;10244719;28;20051;-62
2021/05/13 11:23:17;;;;;;;3.53;1.70;;;;;;;23.97;30.81;99190.75;10237604;28;21462;-63
2021/05/13 11:28:30;;;;;;;5.22;1.75;;;;;;;24.16;30.59;99175.16;10242790;28;20100;-63
2021/05/13 11:33:51;;;;;;;3.13;1.20;;;;;;;24.30;30.30;99176.53;10243410;28;20134;-63
2021/05/13 11:38:58;;;;;;;2.75;1.48;;;;;;;24.97;29.94;99169.72;10238950;28;20077;-64
2021/05/13 11:43:59;;;;;;;3.58;1.75;;;;;;;25.27;29.19;99174.03;10245083;28;20050;-62
2021/05/13 11:49:01;;;;;;;2.35;1.48;;;;;;;24.95;29.73;99163.69;10231979;28;20058;-53
2021/05/13 11:54:07;;;;;;;3.92;1.60;;;;;;;24.56;31.50;99159.91;10240036;28;20073;-55
2021/05/13 11:59:10;;;;;;;2.88;1.33;;;;;;;24.86;28.98;99146.94;10239912;28;20059;-55
2021/05/13 12:04:23;;;;;;;3.55;1.30;;;;;;;24.30;29.48;99153.97;10234502;28;20141;-56
2021/05/13 12:09:26;;;;;;;3.33;1.30;;;;;;;23.73;31.71;99154.59;10244799;28;20047;-56
2021/05/13 12:14:33;;;;;;;4.15;1.25;;;;;;;24.08;31.43;99148.31;10237224;28;20507;-54
2021/05/13 12:19:40;;;;;;;3.00;1.63;;;;;;;23.81;31.02;99136.06;10239873;28;20098;-55
2021/05/13 12:24:43;;;;;;;3.90;1.42;;;;;;;23.74;31.43;99139.97;10233571;28;20061;-67
2021/05/13 12:29:46;;;;;;;3.20;1.00;;;;;;;24.00;30.50;99136.78;10239703;28;20361;-67
2021/05/13 12:34:49;;;;;;;2.45;1.10;;;;;;;24.38;31.13;99139.16;10236745;28;20300;-62
2021/05/13 12:39:52;;;;;;;3.20;1.20;;;;;;;23.19;31.51;99141.91;10243020;28;20058;-63
2021/05/13 12:45:21;;;;;;;3.30;1.30;;;;;;;23.06;31.59;99152.94;10241230;28;20090;-65
2021/05/13 12:50:26;;;;;;;3.42;1.80;;;;;;;23.10;31.11;99144.16;10236895;28;20050;-64
2021/05/13 12:55:39;;;;;;;4.90;1.75;;;;;;;23.12;32.49;99130.34;10233250;28;20149;-63
2021/05/13 13:00:43;;;;;;;3.42;1.10;;;;;;;23.57;31.12;99135.25;10230689;28;20213;-63
2021/05/13 13:05:45;;;;;;;2.85;1.42;;;;;;;24.18;31.07;99129.50;10241959;28;20079;-64
2021/05/13 13:10:46;;;;;;;3.83;1.10;;;;;;;24.56;30.63;99124.53;10239875;28;20074;-64
2021/05/13 13:15:53;;;;;;;3.17;1.42;;;;;;;23.97;29.05;99120.91;10230599;28;20147;-63
2021/05/13 13:20:55;;;;;;;4.22;1.95;;;;;;;23.30;30.60;99119.41;10229532;28;21614;-64
2021/05/13 13:26:02;;;;;;;2.90;1.03;;;;;;;22.66;31.07;99113.66;10235730;28;20173;-64
2021/05/13 13:31:07;;;;;;;4.13;1.73;;;;;;;21.88;31.67;99113.34;10231056;28;20066;-67
2021/05/13 13:36:09;;;;;;;2.28;1.00;;;;;;;21.34;33.94;99107.59;10233484;28;20492;-63
2021/05/13 13:41:11;;;;;;;2.38;1.25;;;;;;;21.68;33.49;99112.75;10237360;28;20098;-63
2021/05/13 13:46:16;;;;;;;4.07;1.45;;;;;;;21.64;33.68;99116.97;10238703;28;20190;-63
2021/05/13 13:51:18;;;;;;;4.57;1.60;;;;;;;21.45;33.72;99114.19;10238315;28;20046;-63
2021/05/13 13:56:19;;;;;;;3.65;1.10;;;;;;;21.81;33.99;99111.78;10242752;28;20065;-62
2021/05/13 14:01:21;;;;;;;4.07;1.10;;;;;;;21.78;33.62;99106.81;10238725;28;20046;-63
2021/05/13 14:06:22;;;;;;;2.40;0.95;;;;;;;21.73;33.77;99110.19;10240881;28;20058;-63
2021/05/13 14:11:26;;;;;;;4.65;1.45;;;;;;;21.42;33.06;99108.38;10241131;28;20693;-63
2021/05/13 14:16:27;;;;;;;;;;;;;;;20.98;34.43;99102.91;10246738;28;20059;-63
2021/05/13 14:21:29;;;;;;;2.88;1.20;;;;;;;21.27;34.03;99100.59;10249012;28;19930;-63
2021/05/13 14:26:30;;;;;;;2.40;1.17;;;;;;;20.82;33.37;99098.84;10236923;28;20197;-63
2021/05/13 14:31:32;;;;;;;2.58;1.10;;;;;;;21.04;33.13;99083.09;10239639;28;20097;-63
2021/05/13 14:36:34;;;;;;;3.00;1.00;;;;;;;20.91;32.61;99077.78;10242064;28;20416;-62
2021/05/13 14:41:35;;;;;;;3.38;1.92;;;;;;;20.74;33.71;99072.91;10247050;28;20057;-62
2021/05/13 14:46:37;;;;;;;2.22;1.00;;;;;;;20.82;36.86;99088.03;10241965;28;20480;-62
2021/05/13 14:51:38;;;;;;;3.33;1.00;;;;;;;20.43;37.55;99079.97;10240570;28;20058;-62
2021/05/13 14:56:40;;;;;;;4.30;1.38;;;;;;;20.52;37.72;99083.22;10244171;28;20741;-62
2021/05/13 15:01:41;;;;;;;1.98;0.90;;;;;;;20.43;37.93;99085.38;10245931;28;20194;-62
2021/05/13 15:06:43;;;;;;;3.35;1.10;;;;;;;20.12;38.89;99078.84;10239856;28;20050;-62
2021/05/13 15:11:45;;;;;;;4.03;1.10;;;;;;;20.02;39.17;99083.88;10239591;28;20134;-64
2021/05/13 15:16:47;;;;;;;3.35;1.98;;;;;;;19.71;40.37;99085.41;10242047;28;20378;-62
2021/05/13 15:21:48;;;;;;;3.00;1.02;;;;;;;19.76;40.50;99079.38;10240678;28;20125;-62
2021/05/13 15:26:50;;;;;;;2.67;0.95;;;;;;;19.91;40.06;99081.84;10242003;28;20050;-62
2021/05/13 15:31:52;;;;;;;3.00;0.95;;;;;;;20.07;38.24;99092.19;10237911;28;20063;-63
2021/05/13 15:36:54;;;;;;;2.70;1.40;;;;;;;20.25;38.33;99077.13;10232505;28;20057;-62
2021/05/13 15:41:56;;;;;;;2.60;1.17;;;;;;;20.41;37.78;99087.44;10244344;28;22131;-63
2021/05/13 15:46:57;;;;;;;2.65;0.93;;;;;;;20.43;38.04;99085.38;10242851;28;20114;-63
2021/05/13 15:52:00;;;;;;;5.50;1.73;;;;;;;20.32;37.72;99086.03;10246124;28;20083;-62
2021/05/13 15:57:02;;;;;;;1.13;0.80;;;;;;;20.19;37.80;99083.38;10251930;28;20148;-62
2021/05/13 16:02:04;;;;;;;1.73;0.82;;;;;;;19.98;38.39;99092.63;10248018;28;20054;-62
2021/05/13 16:07:05;;;;;;;2.97;1.05;;;;;;;19.81;39.50;99092.25;10253334;28;20059;-63
2021/05/13 16:12:11;;;;;;;1.98;0.90;;;;;;;19.57;40.45;99097.25;10248950;28;20516;-62
2021/05/13 16:17:13;;;;;;;2.35;0.98;;;;;;;19.32;42.15;99097.94;10240952;28;20176;-62
2021/05/13 16:22:14;;;;;;;2.40;1.23;;;;;;;19.06;42.53;99099.56;10248883;28;20054;-62
2021/05/13 16:27:16;;;;;;;2.17;0.82;;;;;;;18.87;43.31;99095.00;10248160;28;20110;-64
2021/05/13 16:32:17;;;;;;;3.10;1.15;;;;;;;18.73;43.94;99097.66;10237154;28;20527;-62
2021/05/13 16:37:19;;;;;;;3.97;0.90;;;;;;;18.65;44.32;99100.53;10231771;28;20477;-62
2021/05/13 16:42:20;;;;;;;3.42;0.95;;;;;;;18.33;44.35;99108.34;10244307;28;20161;-62
2021/05/13 16:47:40;;;;;;;1.92;0.70;;;;;;;18.23;44.02;99102.50;10228007;28;20054;-62
2021/05/13 16:52:43;;;;;;;1.27;1.03;;;;;;;18.04;42.74;99114.81;10238164;28;20157;-61
2021/05/13 16:57:45;;;;;;;1.33;0.68;;;;;;;17.66;43.94;99118.72;10224432;28;20364;-64
2021/05/13 17:02:49;;;;;;;2.22;0.80;;;;;;;17.68;45.38;99118.53;10242393;28;20050;-61
2021/05/13 17:07:53;;;;;;;1.73;1.13;;;;;;;17.75;45.92;99116.72;10245728;28;20043;-61
2021/05/13 17:12:54;;;;;;;;;;;;;;;17.70;46.59;99112.94;10249999;28;20058;-62
2021/05/13 17:17:56;;;;;;;3.15;1.00;;;;;;;17.55;46.19;99116.59;10223116;28;21331;-62
2021/05/13 17:23:02;;;;;;;2.50;0.98;;;;;;;17.44;46.01;99115.28;10234747;28;20109;-61
2021/05/13 17:28:05;;;;;;;1.75;0.90;;;;;;;17.31;46.13;99128.63;10240992;28;20106;-62
2021/05/13 17:33:06;;;;;;;2.42;0.93;;;;;;;17.09;46.80;99122.44;10232529;28;20419;-61
2021/05/13 17:38:08;;;;;;;2.08;1.35;;;;;;;16.94;47.23;99117.97;10229361;28;20058;-62
2021/05/13 17:43:13;;;;;;;1.40;1.30;;;;;;;16.89;47.64;99120.41;10242067;28;20108;-63
2021/05/13 17:48:15;;;;;;;2.28;1.60;;;;;;;16.82;47.61;99122.16;10247374;28;20067;-60
2021/05/13 17:53:16;;;;;;;1.90;1.10;;;;;;;16.87;47.63;99135.88;10245148;28;20084;-62
2021/05/13 17:58:18;;;;;;;1.45;1.00;;;;;;;16.71;48.17;99136.09;10251326;28;20493;-61
2021/05/13 18:03:20;;;;;;;1.70;1.10;;;;;;;16.72;48.52;99140.44;10250087;28;20051;-63
2021/05/13 18:08:23;;;;;;;1.20;0.95;;;;;;;16.58;49.50;99151.03;10248987;28;20058;-61
2021/05/13 18:13:25;;;;;;;2.33;0.80;;;;;;;16.48;49.62;99157.75;10245774;28;20695;-60
2021/05/13 18:18:26;;;;;;;1.95;1.13;;;;;;;16.35;50.37;99166.47;10236543;28;20054;-63
2021/05/13 18:23:31;;;;;;;1.35;0.77;;;;;;;16.22;51.21;99176.03;10243894;28;20110;-63
2021/05/13 18:28:34;;;;;;;1.30;1.02;;;;;;;16.28;51.08;99184.38;10253022;28;20141;-64
2021/05/13 18:33:36;;;;;;;1.27;0.82;;;;;;;16.46;51.04;99187.47;10247612;28;20055;-61
2021/05/13 18:38:38;;;;;;;3.03;1.00;;;;;;;16.25;51.82;99199.81;10252358;28;20069;-62
2021/05/13 18:43:40;;;;;;;1.30;1.05;;;;;;;16.14;52.33;99194.06;10248394;28;20134;-60
2021/05/13 18:48:41;;;;;;;2.55;1.00;;;;;;;16.29;52.17;99196.75;10250504;28;20050;-61
2021/05/13 18:53:43;;;;;;;2.38;1.13;;;;;;;16.35;52.24;99196.00;10250053;28;20082;-64
2021/05/13 18:58:45;;;;;;;2.47;1.40;;;;;;;16.31;52.39;99205.47;10247004;28;20101;-63
2021/05/13 19:03:48;;;;;;;1.85;0.82;;;;;;;16.16;52.57;99208.97;10241172;28;20681;-60
2021/05/13 19:08:51;;;;;;;3.33;1.10;;;;;;;16.23;53.26;99226.03;10248516;28;20420;-62
2021/05/13 19:13:53;;;;;;;1.58;1.27;;;;;;;16.23;52.98;99225.22;10230510;28;21038;-61
2021/05/13 19:18:55;;;;;;;1.30;0.90;;;;;;;16.19;53.60;99230.09;10250095;28;20108;-62
2021/05/13 19:23:57;;;;;;;1.90;0.98;;;;;;;16.11;53.57;99224.84;10235731;28;20094;-61
2021/05/13 19:29:05;;;;;;;1.77;1.30;;;;;;;16.12;53.55;99225.66;10237419;28;20136;-61
2021/05/13 19:39:28;;;;;;;2.63;1.50;;;;;;;15.88;55.80;99239.16;10241762;28;20057;-62
2021/05/13 19:44:29;;;;;;;2.53;1.17;;;;;;;15.80;55.88;99231.16;10252339;28;20069;-61
2021/05/13 19:49:31;;;;;;;2.80;0.90;;;;;;;15.78;55.81;99246.63;10247139;28;20054;-63
2021/05/13 19:54:33;;;;;;;1.23;1.00;;;;;;;15.80;56.32;99241.91;10252038;28;20082;-62
2021/05/13 19:59:36;;;;;;;2.47;0.90;;;;;;;15.70;56.02;99249.34;10240508;28;20214;-62
2021/05/13 20:15:05;;;;;;;1.33;0.80;;;;;;;15.27;57.70;99255.22;10245696;28;20101;-62
2021/05/13 20:20:10;;;;;;;0.80;0.60;;;;;;;15.21;58.42;99263.97;10251882;28;20094;-63
2021/05/13 20:26:02;;;;;;;0.70;0.70;;;;;;;15.30;57.75;99262.06;10241251;28;20125;-62
2021/05/13 20:30:39;;;;;;;1.70;0.80;;;;;;;15.28;58.25;99266.75;10242750;28;20105;-62
2021/05/13 20:35:40;;;;;;;1.65;0.90;;;;;;;15.28;58.85;99277.50;10235453;28;20125;-62
2021/05/13 20:40:42;;;;;;;1.10;0.80;;;;;;;15.31;58.43;99274.44;10240198;28;20058;-62
2021/05/13 20:45:44;;;;;;;0.93;0.73;;;;;;;15.32;58.69;99266.22;10246633;28;20057;-62
2021/05/13 20:51:02;;;;;;;1.15;0.80;;;;;;;15.42;58.66;99266.00;10226365;28;20496;-64
2021/05/13 21:01:23;;;;;;;2.47;1.20;;;;;;;15.44;58.45;99269.31;10247937;28;20526;-61
2021/05/13 21:06:29;;;;;;;1.55;1.30;;;;;;;15.46;58.69;99261.09;10255753;28;20464;-62
2021/05/13 21:11:40;;;;;;;2.00;1.30;;;;;;;15.57;58.11;99268.75;10251338;28;20489;-60
2021/05/13 21:32:19;;;;;;;2.42;1.05;;;;;;;15.38;59.56;99280.78;10236527;28;20054;-61
2021/05/13 21:37:21;;;;;;;1.50;1.05;;;;;;;15.20;60.20;99287.25;10249153;28;20051;-61
2021/05/13 21:42:23;;;;;;;2.13;1.00;;;;;;;15.16;60.83;99285.09;10255484;28;20057;-62
2021/05/13 21:47:30;;;;;;;1.58;1.25;;;;;;;15.16;60.98;99285.94;10256561;28;20106;-61
2021/05/13 21:52:32;;;;;;;0.95;0.90;;;;;;;15.11;61.18;99280.28;10251489;28;20461;-62
2021/05/13 21:57:33;;;;;;;2.55;1.40;;;;;;;15.06;60.82;99282.66;10245280;28;20501;-61
2021/05/13 22:02:35;;;;;;;1.38;1.13;;;;;;;15.07;61.21;99286.16;10254991;28;20142;-61
2021/05/13 22:07:37;;;;;;;3.85;1.20;;;;;;;15.09;61.24;99287.66;10246747;28;20059;-61
2021/05/13 22:12:39;;;;;;;2.33;1.10;;;;;;;14.97;61.38;99289.06;10236743;28;20051;-62
2021/05/13 22:17:40;;;;;;;1.20;1.10;;;;;;;14.99;61.70;99287.88;10239381;28;20050;-61
2021/05/13 22:22:46;;;;;;;2.13;1.27;;;;;;;14.91;61.40;99295.13;10239367;28;20111;-61
2021/05/13 22:28:03;;;;;;;1.40;1.25;;;;;;;14.81;62.31;99296.16;10239951;28;20634;-62
2021/05/13 22:33:05;;;;;;;1.48;0.95;;;;;;;14.88;61.59;99298.13;10237623;28;20215;-62
2021/05/13 22:38:06;;;;;;;1.35;1.05;;;;;;;14.81;61.36;99295.34;10243027;28;20071;-62
2021/05/13 22:43:08;;;;;;;0.95;0.93;;;;;;;14.72;61.98;99291.03;10243416;28;20665;-63
2021/05/13 22:48:20;;;;;;;1.05;1.02;;;;;;;14.45;62.17;99285.06;10244458;28;20133;-62
2021/05/13 22:53:28;;;;;;;1.05;0.68;;;;;;;14.31;62.38;99284.75;10251696;28;20054;-62
2021/05/13 22:58:29;;;;;;;1.30;1.10;;;;;;;14.28;63.18;99281.59;10255020;28;20492;-62
2021/05/13 23:03:31;;;;;;;0.95;0.85;;;;;;;14.44;61.79;99284.25;10255423;28;20101;-62
2021/05/13 23:08:38;;;;;;;1.10;1.00;;;;;;;14.31;62.12;99286.63;10243823;28;20057;-62
2021/05/13 23:13:42;;;;;;;2.50;0.95;;;;;;;14.19;62.27;99269.25;10245445;28;20138;-62
2021/05/13 23:18:43;;;;;;;;;;;;;;;14.25;61.68;99280.09;10250973;28;20058;-61
2021/05/13 23:23:45;;;;;;;0.93;0.77;;;;;;;14.15;61.60;99280.28;10250801;28;19978;-61
2021/05/13 23:28:47;;;;;;;0.85;0.82;;;;;;;14.12;61.85;99283.28;10241075;28;20051;-61
2021/05/13 23:33:49;;;;;;;1.50;0.85;;;;;;;14.04;61.86;99280.66;10241943;28;20046;-61
2021/05/13 23:38:51;;;;;;;0.90;0.77;;;;;;;13.96;61.84;99280.63;10242480;28;20075;-61
2021/05/13 23:43:57;;;;;;;1.63;0.80;;;;;;;13.95;61.93;99273.63;10245742;28;20062;-62
2021/05/13 23:48:58;;;;;;;2.30;1.10;;;;;;;13.84;62.03;99273.97;10252855;28;20077;-62
2021/05/13 23:54:00;;;;;;;1.90;1.17;;;;;;;13.74;62.19;99277.66;10253116;28;20096;-62
2021/05/13 23:59:01;;;;;;;1.23;0.70;;;;;;;13.74;62.44;99276.84;10259039;28;20050;-62
